Time,TemperatureF,DewpointF,PressureIn,WindDirection,WindDirectionDegrees,WindSpeedMPH,WindSpeedGustMPH,Humidity,HourlyPrecipIn,Conditions,Clouds,dailyrainin,SolarRadiationWatts/m^2,SoftwareType,DateUTC
2013-03-14 00:22:00,55.0,53.0,-100.00,SE,146,5.0,9.0,92,0.00,,,0.00,0.000000,,2013-03-14 10:22:00,
2013-03-14 00:32:00,55.0,53.0,-100.00,SE,146,5.0,9.0,92,0.00,,,0.00,0.000000,,2013-03-14 10:32:00,
2013-03-14 00:42:00,55.0,53.0,-100.00,SE,146,5.0,9.0,92,0.00,,,0.00,0.000000,,2013-03-14 10:42:00,
2013-03-14 00:52:00,55.0,53.0,-100.00,SE,146,5.0,9.0,92,0.00,,,0.00,0.000000,,2013-03-14 10:52:00,
2013-03-14 01:12:00,52.0,50.0,-100.00,SE,135,9.0,11.0,93,0.00,,,0.00,0.000000,,2013-03-14 11:12:00,
2013-03-14 01:22:00,52.0,50.0,-100.00,SE,135,9.0,11.0,93,0.00,,,0.00,0.000000,,2013-03-14 11:22:00,
2013-03-14 01:32:00,52.0,50.0,-100.00,SE,135,9.0,11.0,93,0.00,,,0.00,0.000000,,2013-03-14 11:32:00,
2013-03-14 01:42:00,52.0,50.0,-100.00,SE,135,9.0,11.0,93,0.00,,,0.00,0.000000,,2013-03-14 11:42:00,
2013-03-14 01:52:00,52.0,50.0,-100.00,SE,135,9.0,11.0,93,0.00,,,0.00,0.000000,,2013-03-14 11:52:00,
2013-03-14 02:22:00,53.0,50.0,-100.00,SE,134,11.0,15.0,90,0.00,,,0.00,0.000000,,2013-03-14 12:22:00,
2013-03-14 02:33:00,53.0,50.0,-100.00,SE,134,11.0,15.0,90,0.00,,,0.00,0.000000,,2013-03-14 12:33:00,
2013-03-14 02:42:00,53.0,50.0,-100.00,SE,134,11.0,15.0,90,0.00,,,0.00,0.000000,,2013-03-14 12:42:00,
2013-03-14 02:51:00,53.0,50.0,-100.00,SE,134,11.0,15.0,90,0.00,,,0.00,0.000000,,2013-03-14 12:51:00,
2013-03-14 03:22:00,51.0,47.0,-100.00,SE,138,10.0,15.0,87,0.00,,,0.00,0.000000,,2013-03-14 13:22:00,
2013-03-14 03:32:00,51.0,47.0,-100.00,SE,138,10.0,15.0,87,0.00,,,0.00,0.000000,,2013-03-14 13:32:00,
2013-03-14 03:42:00,51.0,47.0,-100.00,SE,138,10.0,15.0,87,0.00,,,0.00,0.000000,,2013-03-14 13:42:00,
2013-03-14 03:52:00,51.0,47.0,-100.00,SE,138,10.0,15.0,87,0.00,,,0.00,0.000000,,2013-03-14 13:52:00,
2013-03-14 04:22:00,49.0,46.0,-100.00,ESE,116,10.0,15.0,90,0.00,,,0.00,0.000000,,2013-03-14 14:22:00,
2013-03-14 04:32:00,49.0,46.0,-100.00,ESE,116,10.0,15.0,90,0.00,,,0.00,0.000000,,2013-03-14 14:32:00,
2013-03-14 04:42:00,49.0,46.0,-100.00,ESE,116,10.0,15.0,90,0.00,,,0.00,0.000000,,2013-03-14 14:42:00,
2013-03-14 04:52:00,49.0,46.0,-100.00,ESE,116,10.0,15.0,90,0.00,,,0.00,0.000000,,2013-03-14 14:52:00,
2013-03-14 05:22:00,49.0,47.0,-100.00,SSE,147,7.0,14.0,93,0.00,,,-99.99,0.000000,,2013-03-14 15:22:00,
2013-03-14 05:32:00,49.0,47.0,-100.00,SSE,147,7.0,14.0,93,0.00,,,-99.99,0.000000,,2013-03-14 15:32:00,
2013-03-14 05:42:00,49.0,47.0,-100.00,SSE,147,7.0,14.0,93,0.00,,,-99.99,0.000000,,2013-03-14 15:42:00,
2013-03-14 05:52:00,49.0,47.0,-100.00,SSE,147,7.0,14.0,93,0.00,,,-99.99,0.000000,,2013-03-14 15:52:00,
2013-03-14 06:22:00,47.0,45.0,-100.00,SE,124,9.0,11.0,92,0.00,,,0.00,0.000000,,2013-03-14 16:22:00,
2013-03-14 06:32:00,47.0,45.0,-100.00,SE,124,9.0,11.0,92,0.00,,,0.00,0.000000,,2013-03-14 16:32:00,
2013-03-14 06:42:00,47.0,45.0,-100.00,SE,124,9.0,11.0,92,0.00,,,0.00,0.000000,,2013-03-14 16:42:00,
2013-03-14 06:52:00,47.0,45.0,-100.00,SE,124,9.0,11.0,92,0.00,,,0.00,0.000000,,2013-03-14 16:52:00,
2013-03-14 07:23:00,50.0,47.0,-100.00,SE,129,11.0,18.0,91,0.00,,,0.00,5.000000,,2013-03-14 17:23:00,
2013-03-14 07:32:00,50.0,47.0,-100.00,SE,129,11.0,18.0,91,0.00,,,0.00,5.000000,,2013-03-14 17:32:00,
2013-03-14 07:42:00,50.0,47.0,-100.00,SE,129,11.0,18.0,91,0.00,,,0.00,5.000000,,2013-03-14 17:42:00,
2013-03-14 07:52:00,50.0,47.0,-100.00,SE,129,11.0,18.0,91,0.00,,,0.00,5.000000,,2013-03-14 17:52:00,
2013-03-14 08:22:00,60.0,52.0,-100.00,ESE,123,9.0,15.0,76,0.00,,,0.00,90.000000,,2013-03-14 18:22:00,
2013-03-14 08:32:00,60.0,52.0,-100.00,ESE,123,9.0,15.0,76,0.00,,,0.00,90.000000,,2013-03-14 18:32:00,
2013-03-14 08:42:00,60.0,52.0,-100.00,ESE,123,9.0,15.0,76,0.00,,,0.00,90.000000,,2013-03-14 18:42:00,
2013-03-14 08:52:00,60.0,52.0,-100.00,ESE,123,9.0,15.0,76,0.00,,,0.00,90.000000,,2013-03-14 18:52:00,
2013-03-14 09:22:00,65.0,49.0,-100.00,SSE,147,6.0,12.0,57,0.00,,,0.00,397.000000,,2013-03-14 19:22:00,
2013-03-14 09:32:00,65.0,49.0,-100.00,SSE,147,6.0,12.0,57,0.00,,,0.00,397.000000,,2013-03-14 19:32:00,
2013-03-14 09:42:00,65.0,49.0,-100.00,SSE,147,6.0,12.0,57,0.00,,,0.00,397.000000,,2013-03-14 19:42:00,
2013-03-14 09:52:00,65.0,49.0,-100.00,SSE,147,6.0,12.0,57,0.00,,,0.00,397.000000,,2013-03-14 19:52:00,
2013-03-14 11:22:00,65.0,55.0,-100.00,WNW,303,12.0,23.0,71,-99.99,,,0.00,870.000000,,2013-03-14 21:22:00,
2013-03-14 11:32:00,65.0,55.0,-100.00,WNW,303,12.0,23.0,71,-99.99,,,0.00,870.000000,,2013-03-14 21:32:00,
2013-03-14 11:43:00,65.0,55.0,-100.00,WNW,303,12.0,23.0,71,-99.99,,,0.00,870.000000,,2013-03-14 21:43:00,
2013-03-14 11:52:00,65.0,55.0,-100.00,WNW,303,12.0,23.0,71,-99.99,,,0.00,870.000000,,2013-03-14 21:52:00,
2013-03-14 12:23:00,62.0,55.0,-100.00,NW,324,13.0,20.0,79,0.00,,,0.00,510.000000,,2013-03-14 22:23:00,
2013-03-14 12:33:00,62.0,55.0,-100.00,NW,324,13.0,20.0,79,0.00,,,0.00,510.000000,,2013-03-14 22:33:00,
2013-03-14 12:42:00,62.0,55.0,-100.00,NW,324,13.0,20.0,79,0.00,,,0.00,510.000000,,2013-03-14 22:42:00,
2013-03-14 12:52:00,62.0,55.0,-100.00,NW,324,13.0,20.0,79,0.00,,,0.00,510.000000,,2013-03-14 22:52:00,
2013-03-14 13:22:00,60.0,55.0,-100.00,NNW,337,10.0,19.0,85,0.00,,,0.00,403.000000,,2013-03-14 23:22:00,
2013-03-14 13:33:00,60.0,55.0,-100.00,NNW,337,10.0,19.0,85,0.00,,,0.00,403.000000,,2013-03-14 23:33:00,
2013-03-14 13:42:00,60.0,55.0,-100.00,NNW,337,10.0,19.0,85,0.00,,,0.00,403.000000,,2013-03-14 23:42:00,
2013-03-14 13:52:00,60.0,55.0,-100.00,NNW,337,10.0,19.0,85,0.00,,,0.00,403.000000,,2013-03-14 23:52:00,
2013-03-14 14:22:00,66.0,57.0,-100.00,North,2,5.0,14.0,73,0.00,,,0.00,449.000000,,2013-03-15 00:22:00,
2013-03-14 14:32:00,66.0,57.0,-100.00,North,2,5.0,14.0,73,0.00,,,0.00,449.000000,,2013-03-15 00:32:00,
2013-03-14 14:42:00,66.0,57.0,-100.00,North,2,5.0,14.0,73,0.00,,,0.00,449.000000,,2013-03-15 00:42:00,
2013-03-14 14:52:00,66.0,57.0,-100.00,North,2,5.0,14.0,73,0.00,,,0.00,449.000000,,2013-03-15 00:52:00,
2013-03-14 15:22:00,68.0,55.0,-100.00,NW,313,9.0,16.0,63,0.00,,,0.00,729.000000,,2013-03-15 01:22:00,
2013-03-14 15:32:00,68.0,55.0,-100.00,NW,313,9.0,16.0,63,0.00,,,0.00,729.000000,,2013-03-15 01:32:00,
2013-03-14 15:42:00,68.0,55.0,-100.00,NW,313,9.0,16.0,63,0.00,,,0.00,729.000000,,2013-03-15 01:42:00,
2013-03-14 15:52:00,68.0,55.0,-100.00,NW,313,9.0,16.0,63,0.00,,,0.00,729.000000,,2013-03-15 01:52:00,
2013-03-14 16:22:00,60.0,56.0,-100.00,NW,325,11.0,20.0,87,0.00,,,0.00,283.000000,,2013-03-15 02:22:00,
2013-03-14 16:32:00,60.0,56.0,-100.00,NW,325,11.0,20.0,87,0.00,,,0.00,283.000000,,2013-03-15 02:32:00,
2013-03-14 16:42:00,60.0,56.0,-100.00,NW,325,11.0,20.0,87,0.00,,,0.00,283.000000,,2013-03-15 02:42:00,
2013-03-14 16:52:00,60.0,56.0,-100.00,NW,325,11.0,20.0,87,0.00,,,0.00,283.000000,,2013-03-15 02:52:00,
2013-03-14 17:22:00,61.0,57.0,-100.00,North,352,6.0,14.0,88,0.00,,,0.00,88.000000,,2013-03-15 03:22:00,
2013-03-14 17:32:00,61.0,57.0,-100.00,North,352,6.0,14.0,88,0.00,,,0.00,88.000000,,2013-03-15 03:32:00,
2013-03-14 17:42:00,61.0,57.0,-100.00,North,352,6.0,14.0,88,0.00,,,0.00,88.000000,,2013-03-15 03:42:00,
2013-03-14 17:52:00,61.0,57.0,-100.00,North,352,6.0,14.0,88,0.00,,,0.00,88.000000,,2013-03-15 03:52:00,
2013-03-14 18:22:00,59.0,56.0,-100.00,NNW,332,3.0,11.0,89,0.00,,,0.00,85.000000,,2013-03-15 04:22:00,
2013-03-14 18:32:00,59.0,56.0,-100.00,NNW,332,3.0,11.0,89,0.00,,,0.00,85.000000,,2013-03-15 04:32:00,
2013-03-14 18:42:00,59.0,56.0,-100.00,NNW,332,3.0,11.0,89,0.00,,,0.00,85.000000,,2013-03-15 04:42:00,
2013-03-14 18:52:00,59.0,56.0,-100.00,NNW,332,3.0,11.0,89,0.00,,,0.00,85.000000,,2013-03-15 04:52:00,
2013-03-14 19:22:00,58.0,57.0,-100.00,NW,310,5.0,7.0,96,0.00,,,-99.99,23.000000,,2013-03-15 05:22:00,
2013-03-14 19:32:00,58.0,57.0,-100.00,NW,310,5.0,7.0,96,0.00,,,-99.99,23.000000,,2013-03-15 05:32:00,
2013-03-14 19:42:00,58.0,57.0,-100.00,NW,310,5.0,7.0,96,0.00,,,-99.99,23.000000,,2013-03-15 05:42:00,
2013-03-14 19:52:00,58.0,57.0,-100.00,NW,310,5.0,7.0,96,0.00,,,-99.99,23.000000,,2013-03-15 05:52:00,
2013-03-14 20:22:00,58.0,57.0,-100.00,NE,44,3.0,7.0,98,0.00,,,0.00,0.000000,,2013-03-15 06:22:00,
2013-03-14 20:32:00,58.0,57.0,-100.00,NE,44,3.0,7.0,98,0.00,,,0.00,0.000000,,2013-03-15 06:32:00,
2013-03-14 20:42:00,58.0,57.0,-100.00,NE,44,3.0,7.0,98,0.00,,,0.00,0.000000,,2013-03-15 06:42:00,
2013-03-14 20:52:00,58.0,57.0,-100.00,NE,44,3.0,7.0,98,0.00,,,0.00,0.000000,,2013-03-15 06:52:00,
2013-03-14 21:22:00,55.0,53.0,-100.00,SE,135,6.0,7.0,93,0.00,,,0.00,0.000000,,2013-03-15 07:22:00,
2013-03-14 21:32:00,55.0,53.0,-100.00,SE,135,6.0,7.0,93,0.00,,,0.00,0.000000,,2013-03-15 07:32:00,
2013-03-14 21:42:00,55.0,53.0,-100.00,SE,135,6.0,7.0,93,0.00,,,0.00,0.000000,,2013-03-15 07:42:00,
2013-03-14 21:52:00,55.0,53.0,-100.00,SE,135,6.0,7.0,93,0.00,,,0.00,0.000000,,2013-03-15 07:52:00,
2013-03-14 22:22:00,55.0,54.0,-100.00,SSE,164,3.0,6.0,97,0.00,,,0.00,0.000000,,2013-03-15 08:22:00,
2013-03-14 22:32:00,55.0,54.0,-100.00,SSE,164,3.0,6.0,97,0.00,,,0.00,0.000000,,2013-03-15 08:32:00,
2013-03-14 22:42:00,55.0,54.0,-100.00,SSE,164,3.0,6.0,97,0.00,,,0.00,0.000000,,2013-03-15 08:42:00,
2013-03-14 22:52:00,55.0,54.0,-100.00,SSE,164,3.0,6.0,97,0.00,,,0.00,0.000000,,2013-03-15 08:52:00,
2013-03-14 23:22:00,54.0,52.0,-100.00,SE,129,9.0,10.0,92,0.00,,,0.00,0.000000,,2013-03-15 09:22:00,
2013-03-14 23:33:00,54.0,52.0,-100.00,SE,129,9.0,10.0,92,0.00,,,0.00,0.000000,,2013-03-15 09:33:00,
2013-03-14 23:42:00,54.0,52.0,-100.00,SE,129,9.0,10.0,92,0.00,,,0.00,0.000000,,2013-03-15 09:42:00,
2013-03-14 23:52:00,54.0,52.0,-100.00,SE,129,9.0,10.0,92,0.00,,,0.00,0.000000,,2013-03-15 09:52:00,